createdAt,value
2023-04-16T00:02:04.896Z,1.92
2023-04-16T00:04:32.035Z,1.88
2023-04-16T00:06:59.099Z,1.50
2023-04-16T00:09:26.200Z,1.55
2023-04-16T00:11:53.148Z,1.50
2023-04-16T00:14:20.108Z,1.50
2023-04-16T00:16:48.471Z,1.33
2023-04-16T00:19:15.515Z,1.67
2023-04-16T00:21:42.630Z,1.35
2023-04-16T00:24:09.877Z,1.25
2023-04-16T00:26:36.872Z,1.80
2023-04-16T00:29:03.893Z,1.25
2023-04-16T00:31:32.916Z,1.23
2023-04-16T00:34:01.388Z,1.60
2023-04-16T00:36:28.714Z,1.00
2023-04-16T00:38:56.670Z,0.85
2023-04-16T00:41:23.748Z,1.00
2023-04-16T00:43:51.781Z,0.93
2023-04-16T00:46:19.646Z,1.33
2023-04-16T00:48:46.716Z,1.55
2023-04-16T00:51:15.530Z,0.82
2023-04-16T00:53:44.805Z,1.13
2023-04-16T00:56:12.418Z,1.50
2023-04-16T00:58:39.849Z,1.23
2023-04-16T01:01:06.999Z,1.15
2023-04-16T01:03:39.179Z,0.98
2023-04-16T01:06:06.857Z,1.17
2023-04-16T01:08:35.718Z,0.65
2023-04-16T01:11:02.815Z,1.17
2023-04-16T01:13:30.018Z,0.73
2023-04-16T01:15:56.977Z,1.30
2023-04-16T01:18:24.231Z,0.80
2023-04-16T01:20:52.851Z,1.42
2023-04-16T01:25:46.795Z,1.33
2023-04-16T01:28:13.805Z,1.35
2023-04-16T01:30:41.460Z,1.23
2023-04-16T01:33:18.454Z,1.50
2023-04-16T01:35:45.391Z,2.33
2023-04-16T01:38:16.004Z,1.95
2023-04-16T01:40:43.180Z,1.83
2023-04-16T01:43:10.184Z,1.77
2023-04-16T01:45:37.298Z,3.00
2023-04-16T01:48:04.817Z,2.58
2023-04-16T01:50:32.194Z,1.73
2023-04-16T01:52:59.352Z,1.92
2023-04-16T01:55:27.738Z,1.90
2023-04-16T01:57:54.813Z,1.30
2023-04-16T02:00:26.241Z,1.40
2023-04-16T02:02:53.856Z,2.42
2023-04-16T02:05:26.461Z,1.77
2023-04-16T02:07:53.411Z,2.03
2023-04-16T02:10:20.802Z,1.85
2023-04-16T02:12:49.661Z,2.42
2023-04-16T02:15:16.651Z,2.53
2023-04-16T02:17:44.092Z,1.65
2023-04-16T02:20:12.031Z,1.90
2023-04-16T02:22:46.326Z,2.10
2023-04-16T02:25:16.547Z,1.40
2023-04-16T02:27:43.998Z,1.83
2023-04-16T02:30:34.976Z,1.77
2023-04-16T02:33:05.549Z,1.90
2023-04-16T02:35:32.862Z,1.88
2023-04-16T02:37:59.957Z,1.60
2023-04-16T02:40:27.120Z,1.23
2023-04-16T02:42:54.532Z,1.27
2023-04-16T02:45:21.704Z,1.90
2023-04-16T02:47:50.528Z,1.30
2023-04-16T02:50:18.073Z,1.67
2023-04-16T02:52:45.236Z,1.85
2023-04-16T02:55:12.366Z,1.80
2023-04-16T02:57:39.485Z,1.60
2023-04-16T03:00:08.134Z,1.30
2023-04-16T03:05:04.008Z,1.70
2023-04-16T03:07:31.060Z,3.70
2023-04-16T03:09:58.217Z,3.58
2023-04-16T03:12:25.321Z,3.67
2023-04-16T03:14:55.213Z,3.72
2023-04-16T03:17:22.242Z,4.88
2023-04-16T03:19:50.863Z,4.13
2023-04-16T03:22:21.530Z,3.80
2023-04-16T03:24:48.538Z,3.50
2023-04-16T03:27:15.564Z,3.20
2023-04-16T03:29:42.632Z,3.30
2023-04-16T03:32:09.999Z,2.30
2023-04-16T03:34:37.344Z,1.27
2023-04-16T03:37:06.213Z,1.00
2023-04-16T03:39:35.028Z,1.10
2023-04-16T03:44:29.801Z,1.13
2023-04-16T03:46:56.844Z,1.40
2023-04-16T03:49:24.200Z,1.30
2023-04-16T03:51:51.560Z,1.67
2023-04-16T03:54:20.140Z,1.55
2023-04-16T03:59:21.664Z,1.90
2023-04-16T04:01:48.912Z,1.40
2023-04-16T04:04:16.312Z,1.70
2023-04-16T04:06:45.343Z,1.70
2023-04-16T04:09:12.588Z,1.83
2023-04-16T04:11:39.611Z,1.70
2023-04-16T04:14:08.227Z,1.45
2023-04-16T04:16:35.390Z,1.80
2023-04-16T04:19:02.373Z,2.08
2023-04-16T04:21:29.870Z,1.60
2023-04-16T04:23:57.555Z,1.98
2023-04-16T04:26:24.607Z,1.92
2023-04-16T04:28:51.696Z,1.98
2023-04-16T04:31:20.618Z,2.03
2023-04-16T04:33:47.645Z,2.20
2023-04-16T04:36:14.621Z,1.65
2023-04-16T04:38:42.354Z,1.75
2023-04-16T04:41:09.599Z,2.05
2023-04-16T04:43:38.322Z,1.85
2023-04-16T04:46:05.780Z,1.70
2023-04-16T04:48:34.300Z,2.20
2023-04-16T04:51:02.991Z,1.90
2023-04-16T04:53:31.745Z,2.78
2023-04-16T04:56:08.967Z,1.92
2023-04-16T04:58:39.626Z,2.15
2023-04-16T05:01:06.790Z,2.30
2023-04-16T05:03:35.268Z,2.45
2023-04-16T05:08:29.161Z,1.83
2023-04-16T05:10:56.097Z,1.90
2023-04-16T05:13:23.152Z,2.28
2023-04-16T05:15:50.552Z,2.03
2023-04-16T05:18:17.512Z,2.42
2023-04-16T05:20:46.210Z,1.98
2023-04-16T05:23:13.216Z,2.40
2023-04-16T05:25:40.286Z,2.45
2023-04-16T05:28:07.244Z,1.80
2023-04-16T05:30:34.214Z,1.52
2023-04-16T05:33:01.249Z,2.30
2023-04-16T05:35:28.407Z,2.50
2023-04-16T05:37:56.827Z,2.30
2023-04-16T05:40:23.782Z,2.65
2023-04-16T05:42:50.874Z,2.97
2023-04-16T05:45:17.868Z,2.90
2023-04-16T05:47:45.158Z,3.55
2023-04-16T05:50:12.354Z,2.70
2023-04-16T05:52:39.376Z,3.33
2023-04-16T05:55:08.525Z,2.90
2023-04-16T05:57:35.509Z,3.35
2023-04-16T06:00:02.442Z,3.53
2023-04-16T06:02:39.163Z,3.22
2023-04-16T06:05:06.629Z,3.20
2023-04-16T06:07:33.678Z,2.63
2023-04-16T06:10:00.729Z,2.67
2023-04-16T06:12:29.154Z,2.97
2023-04-16T06:17:23.513Z,2.58
2023-04-16T06:19:50.565Z,2.88
2023-04-16T06:22:17.576Z,2.67
2023-04-16T06:24:44.614Z,2.50
2023-04-16T06:27:12.014Z,2.55
2023-04-16T06:29:41.826Z,3.00
2023-04-16T06:32:09.141Z,2.85
2023-04-16T06:34:38.021Z,3.03
2023-04-16T06:37:05.237Z,2.80
2023-04-16T06:39:32.159Z,2.97
2023-04-16T06:41:59.198Z,2.70
2023-04-16T06:44:26.094Z,2.42
2023-04-16T06:46:54.503Z,2.72
2023-04-16T06:49:22.005Z,3.22
2023-04-16T06:51:49.088Z,3.42
2023-04-16T06:54:16.845Z,3.22
2023-04-16T06:56:43.890Z,3.50
2023-04-16T06:59:11.301Z,3.15
2023-04-16T07:01:38.479Z,3.08
2023-04-16T07:04:07.078Z,3.50
2023-04-16T07:06:34.638Z,3.05
2023-04-16T07:09:01.577Z,2.83
2023-04-16T07:11:28.735Z,2.55
2023-04-16T07:13:55.721Z,3.00
2023-04-16T07:16:22.802Z,2.50
2023-04-16T07:18:49.827Z,2.55
2023-04-16T07:21:18.251Z,2.92
2023-04-16T07:23:45.209Z,2.90
2023-04-16T07:26:12.221Z,2.47
2023-04-16T07:28:39.174Z,2.70
2023-04-16T07:31:06.400Z,2.72
2023-04-16T07:33:33.811Z,2.20
2023-04-16T07:36:00.909Z,2.00
2023-04-16T07:38:29.262Z,2.58
2023-04-16T07:40:56.986Z,2.42
2023-04-16T07:43:23.979Z,2.28
2023-04-16T07:45:51.084Z,2.25
2023-04-16T07:48:18.141Z,2.22
2023-04-16T07:50:45.359Z,2.05
2023-04-16T07:53:12.372Z,2.00
2023-04-16T07:55:41.093Z,2.45
2023-04-16T07:58:09.621Z,2.58
2023-04-16T08:00:36.650Z,3.10
2023-04-16T08:03:04.117Z,3.03
2023-04-16T08:05:31.169Z,2.45
2023-04-16T08:07:58.106Z,2.42
2023-04-16T08:10:25.162Z,2.35
2023-04-16T08:12:53.826Z,1.80
2023-04-16T08:15:20.802Z,2.33
2023-04-16T08:17:47.815Z,2.42
2023-04-16T08:20:17.590Z,2.50
2023-04-16T08:22:45.907Z,2.83
2023-04-16T08:25:12.845Z,2.20
2023-04-16T08:27:39.870Z,2.40
2023-04-16T08:30:08.665Z,2.33
2023-04-16T08:32:35.827Z,3.03
2023-04-16T08:35:02.967Z,2.47
2023-04-16T08:37:29.974Z,2.40
2023-04-16T08:39:56.911Z,2.20
2023-04-16T08:42:30.330Z,2.13
2023-04-16T08:45:06.705Z,2.42
2023-04-16T08:47:37.095Z,1.85
2023-04-16T08:50:05.775Z,2.38
2023-04-16T08:52:33.109Z,1.83
2023-04-16T08:55:05.444Z,1.73
2023-04-16T08:57:39.013Z,2.00
2023-04-16T09:00:08.981Z,2.15
2023-04-16T09:02:37.832Z,1.83
2023-04-16T09:05:07.874Z,1.90
2023-04-16T09:07:35.567Z,1.95
2023-04-16T09:10:03.402Z,1.83
2023-04-16T09:12:30.872Z,1.90
2023-04-16T09:14:59.830Z,1.85
2023-04-16T09:17:27.620Z,1.67
2023-04-16T09:19:56.036Z,1.75
2023-04-16T09:22:22.990Z,1.65
2023-04-16T09:24:50.074Z,1.38
2023-04-16T09:27:17.499Z,1.90
2023-04-16T09:29:44.604Z,1.88
2023-04-16T09:32:12.202Z,1.30
2023-04-16T09:37:42.740Z,2.40
2023-04-16T09:40:10.209Z,1.27
2023-04-16T09:42:37.506Z,1.35
2023-04-16T09:45:06.143Z,1.50
2023-04-16T09:47:41.686Z,1.05
2023-04-16T09:50:12.999Z,0.98
2023-04-16T09:52:40.318Z,1.42
2023-04-16T09:55:08.843Z,1.15
2023-04-16T09:57:37.925Z,1.95
2023-04-16T10:00:06.508Z,1.48
2023-04-16T10:02:34.722Z,1.50
2023-04-16T10:05:06.128Z,1.25
2023-04-16T10:07:34.693Z,1.98
2023-04-16T10:10:01.776Z,1.17
2023-04-16T10:12:30.830Z,1.38
2023-04-16T10:14:57.741Z,1.20
2023-04-16T10:17:25.253Z,1.50
2023-04-16T10:19:52.517Z,1.40
2023-04-16T10:22:19.473Z,1.70
2023-04-16T10:24:47.340Z,1.50
2023-04-16T10:29:43.211Z,0.93
2023-04-16T10:32:10.439Z,1.52
2023-04-16T10:34:37.448Z,1.23
2023-04-16T10:37:04.388Z,1.48
2023-04-16T10:39:33.011Z,1.20
2023-04-16T10:42:11.217Z,1.17
2023-04-16T10:44:38.377Z,1.63
2023-04-16T10:47:12.852Z,1.05
2023-04-16T10:49:40.305Z,1.35
2023-04-16T10:52:12.356Z,1.98
2023-04-16T10:54:40.533Z,1.08
2023-04-16T10:57:09.226Z,1.30
2023-04-16T10:59:37.263Z,1.30
2023-04-16T11:02:08.090Z,1.15
2023-04-16T11:04:37.438Z,1.15
2023-04-16T11:07:16.640Z,0.95
2023-04-16T11:10:02.439Z,1.20
2023-04-16T11:12:34.356Z,1.20
2023-04-16T11:15:02.820Z,1.60
2023-04-16T11:17:33.045Z,1.10
2023-04-16T11:20:01.515Z,1.23
2023-04-16T11:22:28.494Z,1.17
2023-04-16T11:24:56.719Z,1.80
2023-04-16T11:27:24.358Z,1.25
2023-04-16T11:29:59.142Z,1.40
2023-04-16T11:32:26.287Z,1.33
2023-04-16T11:34:53.276Z,1.45
2023-04-16T11:37:32.273Z,1.55
2023-04-16T11:39:59.281Z,1.40
2023-04-16T11:42:28.505Z,1.63
2023-04-16T11:44:57.236Z,1.52
2023-04-16T11:47:24.664Z,1.55
2023-04-16T11:49:51.744Z,1.40
2023-04-16T11:52:30.813Z,1.45
2023-04-16T11:54:58.829Z,1.48
2023-04-16T11:57:26.879Z,1.58
2023-04-16T12:00:02.450Z,0.98
2023-04-16T12:02:52.380Z,1.10
2023-04-16T12:05:31.128Z,1.30
2023-04-16T12:08:00.933Z,1.70
2023-04-16T12:10:28.381Z,2.20
2023-04-16T12:12:56.036Z,3.90
2023-04-16T12:15:23.295Z,3.47
2023-04-16T12:17:51.575Z,2.42
2023-04-16T12:20:18.670Z,1.40
2023-04-16T12:22:47.816Z,1.60
2023-04-16T12:25:17.712Z,2.15
2023-04-16T12:27:53.053Z,1.63
2023-04-16T12:30:22.679Z,1.35
2023-04-16T12:32:51.885Z,2.70
2023-04-16T12:35:30.554Z,1.83
2023-04-16T12:37:57.728Z,1.20
2023-04-16T12:40:26.333Z,1.52
2023-04-16T12:42:53.329Z,1.38
2023-04-16T12:45:20.813Z,1.60
2023-04-16T12:47:47.801Z,1.33
2023-04-16T12:50:14.838Z,1.50
2023-04-16T12:53:00.249Z,1.60
2023-04-16T12:55:28.597Z,1.40
2023-04-16T12:57:55.766Z,1.10
2023-04-16T13:00:23.102Z,1.30
2023-04-16T13:02:50.189Z,1.48
2023-04-16T13:05:19.303Z,1.23
2023-04-16T13:07:46.531Z,2.35
2023-04-16T13:10:14.023Z,1.40
2023-04-16T13:12:42.505Z,1.20
2023-04-16T13:15:10.698Z,1.25
2023-04-16T13:17:37.730Z,1.40
2023-04-16T13:20:05.654Z,1.45
2023-04-16T13:22:32.655Z,0.90
2023-04-16T13:24:59.568Z,1.25
2023-04-16T13:27:26.725Z,1.40
2023-04-16T13:29:55.228Z,1.17
2023-04-16T13:32:22.249Z,1.35
2023-04-16T13:34:49.212Z,1.48
2023-04-16T13:37:16.180Z,1.17
2023-04-16T13:39:43.179Z,1.48
2023-04-16T13:42:10.295Z,1.38
2023-04-16T13:44:37.316Z,1.00
2023-04-16T13:47:05.788Z,1.60
2023-04-16T13:49:36.032Z,1.25
2023-04-16T13:52:03.324Z,1.38
2023-04-16T13:54:30.311Z,1.98
2023-04-16T13:56:57.329Z,1.33
2023-04-16T13:59:24.474Z,1.70
2023-04-16T14:01:51.713Z,2.03
2023-04-16T14:04:22.383Z,1.50
2023-04-16T14:06:49.988Z,1.63
2023-04-16T14:09:16.975Z,1.48
2023-04-16T14:11:44.015Z,1.63
2023-04-16T14:14:11.125Z,1.80
2023-04-16T14:16:38.199Z,1.20
2023-04-16T14:19:05.379Z,1.40
2023-04-16T14:21:33.705Z,1.33
2023-04-16T14:24:00.662Z,1.30
2023-04-16T14:26:27.638Z,1.73
2023-04-16T14:28:54.594Z,1.98
2023-04-16T14:31:21.757Z,1.95
2023-04-16T14:33:48.782Z,1.05
2023-04-16T14:36:15.787Z,1.13
2023-04-16T14:38:44.326Z,0.95
2023-04-16T14:41:12.659Z,0.90
2023-04-16T14:43:42.542Z,1.30
2023-04-16T14:46:09.906Z,1.73
2023-04-16T14:48:36.925Z,1.10
2023-04-16T14:51:03.910Z,1.02
2023-04-16T14:53:31.628Z,1.00
2023-04-16T14:56:00.098Z,1.50
2023-04-16T14:58:27.092Z,1.80
2023-04-16T15:00:54.207Z,2.00
2023-04-16T15:03:21.448Z,1.58
2023-04-16T15:05:55.324Z,1.67
2023-04-16T15:08:22.576Z,2.03
2023-04-16T15:10:49.869Z,2.22
2023-04-16T15:13:18.443Z,2.45
2023-04-16T15:15:45.501Z,2.33
2023-04-16T15:18:12.577Z,1.67
2023-04-16T15:20:39.473Z,1.50
2023-04-16T15:23:06.630Z,1.58
2023-04-16T15:25:34.111Z,1.85
2023-04-16T15:28:02.657Z,1.48
2023-04-16T15:30:31.315Z,1.85
2023-04-16T15:32:58.354Z,2.10
2023-04-16T15:35:25.513Z,2.65
2023-04-16T15:37:52.904Z,2.95
2023-04-16T15:40:20.651Z,2.03
2023-04-16T15:42:47.719Z,1.63
2023-04-16T15:45:14.715Z,1.40
2023-04-16T15:47:45.366Z,1.40
2023-04-16T15:50:12.511Z,1.60
2023-04-16T15:52:40.318Z,2.03
2023-04-16T15:55:07.676Z,1.95
2023-04-16T15:57:34.686Z,2.22
2023-04-16T16:00:06.376Z,2.97
2023-04-16T16:02:34.787Z,2.03
2023-04-16T16:05:04.682Z,1.50
2023-04-16T16:07:31.832Z,1.85
2023-04-16T16:09:58.925Z,1.75
2023-04-16T16:12:25.917Z,2.03
2023-04-16T16:14:52.857Z,1.63
2023-04-16T16:17:20.588Z,1.98
2023-04-16T16:19:47.661Z,2.17
2023-04-16T16:22:20.373Z,2.17
2023-04-16T16:24:49.123Z,1.88
2023-04-16T16:27:16.196Z,2.33
2023-04-16T16:29:43.444Z,2.53
2023-04-16T16:32:11.165Z,2.20
2023-04-16T16:34:38.125Z,2.05
2023-04-16T16:37:05.105Z,2.45
2023-04-16T16:39:33.408Z,1.60
2023-04-16T16:44:27.605Z,1.88
2023-04-16T16:46:54.631Z,1.58
2023-04-16T16:49:21.575Z,2.42
2023-04-16T16:51:48.745Z,2.42
2023-04-16T16:54:15.805Z,2.15
2023-04-16T16:56:44.101Z,2.25
2023-04-16T16:59:11.581Z,2.22
2023-04-16T17:01:38.896Z,2.70
2023-04-16T17:04:06.161Z,3.05
2023-04-16T17:06:33.604Z,3.38
2023-04-16T17:09:01.001Z,3.13
2023-04-16T17:11:29.348Z,3.55
2023-04-16T17:13:57.913Z,3.38
2023-04-16T17:16:25.022Z,3.92
2023-04-16T17:18:52.190Z,4.38
2023-04-16T17:21:19.117Z,5.15
2023-04-16T17:23:46.097Z,5.32
2023-04-16T17:26:13.224Z,4.40
2023-04-16T17:28:40.124Z,5.28
2023-04-16T17:31:08.673Z,4.95
2023-04-16T17:33:35.856Z,6.13
2023-04-16T17:36:21.427Z,5.90
2023-04-16T17:38:48.775Z,6.50
2023-04-16T17:41:15.816Z,4.40
2023-04-16T17:43:43.535Z,4.43
2023-04-16T17:46:12.002Z,5.20
2023-04-16T17:48:39.076Z,5.50
2023-04-16T17:51:10.155Z,7.10
2023-04-16T17:53:37.192Z,5.93
2023-04-16T17:56:04.424Z,5.97
2023-04-16T17:58:35.059Z,6.38
2023-04-16T18:01:02.153Z,5.22
2023-04-16T18:03:31.484Z,5.55
2023-04-16T18:05:58.845Z,6.32
2023-04-16T18:08:26.273Z,7.30
2023-04-16T18:10:55.091Z,8.00
2023-04-16T18:13:22.147Z,5.97
2023-04-16T18:15:49.176Z,6.35
2023-04-16T18:18:16.296Z,5.75
2023-04-16T18:20:44.818Z,4.50
2023-04-16T18:23:11.828Z,5.03
2023-04-16T18:25:40.314Z,3.88
2023-04-16T18:28:07.522Z,5.30
2023-04-16T18:30:35.474Z,4.20
2023-04-16T18:35:32.280Z,4.20
2023-04-16T18:38:00.584Z,4.35
2023-04-16T18:40:29.306Z,3.80
2023-04-16T18:42:56.361Z,3.80
2023-04-16T18:45:23.428Z,3.22
2023-04-16T18:47:50.840Z,3.38
2023-04-16T18:50:17.984Z,3.42
2023-04-16T18:52:45.217Z,3.38
2023-04-16T18:55:13.540Z,3.38
2023-04-16T18:57:40.511Z,3.40
2023-04-16T19:00:12.762Z,2.33
2023-04-16T19:02:40.165Z,3.03
2023-04-16T19:05:08.641Z,2.80
2023-04-16T19:07:36.154Z,2.60
2023-04-16T19:10:03.138Z,3.70
2023-04-16T19:12:31.643Z,3.95
2023-04-16T19:14:59.070Z,3.33
2023-04-16T19:17:26.679Z,3.15
2023-04-16T19:19:53.750Z,3.03
2023-04-16T19:22:21.186Z,2.70
2023-04-16T19:24:48.227Z,3.55
2023-04-16T19:27:15.382Z,2.85
2023-04-16T19:29:43.761Z,3.25
2023-04-16T19:34:38.771Z,2.95
2023-04-16T19:37:05.814Z,2.53
2023-04-16T19:39:33.323Z,2.72
2023-04-16T19:42:01.821Z,2.97
2023-04-16T19:44:28.822Z,3.00
2023-04-16T19:46:57.132Z,3.15
2023-04-16T19:49:34.174Z,2.38
2023-04-16T19:52:01.488Z,3.03
2023-04-16T19:54:28.909Z,2.55
2023-04-16T19:56:57.115Z,2.97
2023-04-16T19:59:25.049Z,2.53
2023-04-16T20:01:52.289Z,2.95
2023-04-16T20:04:20.790Z,2.33
2023-04-16T20:06:47.851Z,2.88
2023-04-16T20:09:14.784Z,2.38
2023-04-16T20:11:41.849Z,2.53
2023-04-16T20:14:09.095Z,3.20
2023-04-16T20:16:38.684Z,2.90
2023-04-16T20:19:08.696Z,2.95
2023-04-16T20:21:37.613Z,2.78
2023-04-16T20:24:04.973Z,2.20
2023-04-16T20:26:34.108Z,2.65
2023-04-16T20:29:01.203Z,2.67
2023-04-16T20:31:28.336Z,2.22
2023-04-16T20:34:13.999Z,2.00
2023-04-16T20:36:42.527Z,2.03
2023-04-16T20:39:10.793Z,2.42
2023-04-16T20:41:43.860Z,2.65
2023-04-16T20:44:18.794Z,2.72
2023-04-16T20:46:49.673Z,2.70
2023-04-16T20:49:18.481Z,2.55
2023-04-16T20:51:46.777Z,2.50
2023-04-16T20:56:40.832Z,2.13
2023-04-16T20:59:07.861Z,2.53
2023-04-16T21:01:35.333Z,2.35
2023-04-16T21:04:02.597Z,2.60
2023-04-16T21:06:32.960Z,2.08
2023-04-16T21:09:01.332Z,2.85
2023-04-16T21:13:56.526Z,2.90
2023-04-16T21:16:23.555Z,2.25
2023-04-16T21:18:50.780Z,1.83
2023-04-16T21:21:18.144Z,2.25
2023-04-16T21:23:45.342Z,2.67
2023-04-16T21:26:13.655Z,2.75
2023-04-16T21:31:07.692Z,3.10
2023-04-16T21:33:34.731Z,2.90
2023-04-16T21:36:01.723Z,3.30
2023-04-16T21:38:28.667Z,2.70
2023-04-16T21:40:55.810Z,3.22
2023-04-16T21:43:24.260Z,3.72
2023-04-16T21:45:52.327Z,3.58
2023-04-16T21:48:19.419Z,3.95
2023-04-16T21:50:46.363Z,3.92
2023-04-16T21:53:13.354Z,3.33
2023-04-16T21:55:41.801Z,3.70
2023-04-16T21:58:08.741Z,3.00
2023-04-16T22:00:37.315Z,3.25
2023-04-16T22:03:04.542Z,3.58
2023-04-16T22:05:33.309Z,3.63
2023-04-16T22:08:02.616Z,4.13
2023-04-16T22:13:02.137Z,3.55
2023-04-16T22:15:29.200Z,4.72
2023-04-16T22:17:57.721Z,4.20
2023-04-16T22:22:53.542Z,3.75
2023-04-16T22:25:20.469Z,3.92
2023-04-16T22:27:47.626Z,4.05
2023-04-16T22:30:15.214Z,3.97
2023-04-16T22:32:42.225Z,4.53
2023-04-16T22:35:12.629Z,4.55
2023-04-16T22:37:39.620Z,5.05
2023-04-16T22:40:11.521Z,4.72
2023-04-16T22:42:38.558Z,4.50
2023-04-16T22:45:07.374Z,4.47
2023-04-16T22:47:34.502Z,4.85
2023-04-16T22:50:01.485Z,4.68
2023-04-16T22:52:30.014Z,4.47
2023-04-16T22:57:26.894Z,4.57
2023-04-16T22:59:53.940Z,4.25
2023-04-16T23:02:21.273Z,4.00
2023-04-16T23:04:48.358Z,4.60
2023-04-16T23:07:15.703Z,3.47
2023-04-16T23:09:44.073Z,3.78
2023-04-16T23:12:11.112Z,3.63
2023-04-16T23:14:38.130Z,3.85
2023-04-16T23:17:05.169Z,3.10
2023-04-16T23:19:32.119Z,3.30
2023-04-16T23:21:59.201Z,2.88
2023-04-16T23:24:26.562Z,2.70
2023-04-16T23:26:54.900Z,2.67
2023-04-16T23:29:21.878Z,2.63
2023-04-16T23:31:48.994Z,2.05
2023-04-16T23:34:16.053Z,2.13
2023-04-16T23:36:43.089Z,2.03
2023-04-16T23:39:10.307Z,2.20
2023-04-16T23:41:37.428Z,2.28
2023-04-16T23:44:05.960Z,2.72
2023-04-16T23:46:33.019Z,2.58
2023-04-16T23:49:00.138Z,2.30
2023-04-16T23:51:27.156Z,2.05
2023-04-16T23:53:54.129Z,2.30
2023-04-16T23:56:21.237Z,2.17
2023-04-16T23:58:48.224Z,1.77
